Aérodrome :
LOGIN :

S'inscrire | Disclaimer

   EN    FR    IT 

 










Légende :    VFR   VFR Marginal   IFR   IFR Intensif   IFR Très Intensif
Visi : 
Plafond : 
>= 8 km
>= 3000ft
5 à 8 km
1000 à 3000 ft
1500m à 5 km
500 à 1000 ft
800 à 1500m
200 à 500 ft
< 800m
< 200 ft
Symboles :   Orages  Brouillard  Fortes neiges  Fortes précipitations  Vent > 20 kt
SIGMETs :   Divers  Orages  Givrage  Turbulence  Onde Orograph.  Cendres Volcan.







- Altitude de l'aérodrome : 1910 ft
- Code IATA : RDZ
- Voir les cartes d'approche


LFCR - Rodez

DERNIER METAR :
  • 301230Z AUTO 14024KT 9999 BKN026 16/08 Q1004 BECMG 14025G38KT

METARs EXPIRÉS :
  • 301200Z AUTO 14025G36KT 9999 BKN023 BKN031 16/09 Q1005 NOSIG
  • 301130Z AUTO 14024G35KT 9999 BKN023 BKN110 16/08 Q1005 NOSIG
  • 301100Z AUTO 15024G36KT 9999 BKN022 15/08 Q1005 NOSIG
  • 301030Z AUTO 13024G35KT 9999 BKN021 14/07 Q1006 NOSIG
  • 301000Z AUTO 13024G38KT 9999 OVC020 13/07 Q1006 NOSIG

TAF TAF LFCR
Valide du 30 à 12h jusqu'au 01 à 12h UTC


301100Z 3012/0112 14025G38KT 9999 BKN020
BECMG 3015/3017 BKN015 FEW030CB OVC080
TEMPO 3015/3019 30020G30KT 4000 SHRA BKN010 SCT030CB OVC060
PROB40
TEMPO 3015/3017 30025G40KT 2000 TSRA BKN008
PROB30
TEMPO 3015/3017 1000 TSGR
BECMG 3017/3019 30006KT BKN020
BECMG 3019/3022 OVC010
TEMPO 3022/0105 OVC004
BECMG 0101/0103 27010KT
BECMG 0108/0111 BKN030
PROB30
TEMPO 0105/0112 -SHRA BKN007 SCT020TCU
Pas de NOTAMs connus pour ce terrain.
4 SIGMETs publiés pour la FIR Bordeaux (LFBB) :
 
Orages noyés dans la masse
LFBB SIGMET 9 VALID 301200/301400 LFPW
LFBB BORDEAUX FIR/UIR EMBD TS OBS WI N4400 W00015 - N4615 E00030 - N4630 E00115 - N4430 E00045 TOP FL300 MOV NE 15KT NC=
Turbulence forte
LFBB SIGMET 8 VALID 301200/301600 LFPW
LFBB BORDEAUX FIR/UIR SEV TURB FCST WI N4300 W00115 - N4300 W00145 - N4545 W00145 - N4545 W00030 SFC/FL070 MOV E 15KT NC=
Turbulence forte
LFBB SIGMET 7 VALID 301200/301600 LFPW
LFBB BORDEAUX FIR/UIR SEV TURB FCST WI N4630 E00300 - N4230 E00230 - N4615 E00115 SFC/FL070 STNR NC=
Onde orographique forte
LFBB SIGMET 6 VALID 301200/301600 LFPW
LFBB BORDEAUX FIR/UIR SEV MTW FCST S OF LINE N4245 E00230 - N4315 W00145 FL050/350 STNR NC=



MET'MAP, la Météo Aéronautique d'un coup d'oeil ! - Copyright ORBIFLY Décembre 2007 - Disclaimer

ORBIFLY MET'MAP TEAM :

Programmation & Développement : Alexandra Zaïnal
Conception & Développement : Baudouin d'Aumeries
Co-Programmation & Développement : Marc-Olivier Méhu
Soutien technique & logistique : Manuel Goepfert

Contact : metmap@orbifly.com




SOURCES & CREDITS :

   NOAA